sensor_id;sensor_type;location;lat;lon;timestamp;P1;durP1;ratioP1;P2;durP2;ratioP2
40433;SDS011;26146;51.114;5.654;2023-02-19T00:01:50;9.73;;;5.00;;
40433;SDS011;26146;51.114;5.654;2023-02-19T00:05:51;9.27;;;4.83;;
40433;SDS011;26146;51.114;5.654;2023-02-19T00:09:52;10.67;;;5.07;;
40433;SDS011;26146;51.114;5.654;2023-02-19T00:13:54;10.03;;;4.97;;
40433;SDS011;26146;51.114;5.654;2023-02-19T00:17:57;9.60;;;5.03;;
40433;SDS011;26146;51.114;5.654;2023-02-19T00:21:58;11.23;;;5.33;;
40433;SDS011;26146;51.114;5.654;2023-02-19T00:26:02;10.07;;;5.20;;
40433;SDS011;26146;51.114;5.654;2023-02-19T00:30:08;11.00;;;5.50;;
40433;SDS011;26146;51.114;5.654;2023-02-19T00:34:09;10.87;;;5.10;;
40433;SDS011;26146;51.114;5.654;2023-02-19T00:38:11;10.33;;;5.33;;
40433;SDS011;26146;51.114;5.654;2023-02-19T00:42:14;12.83;;;5.50;;
40433;SDS011;26146;51.114;5.654;2023-02-19T00:46:22;11.40;;;5.50;;
40433;SDS011;26146;51.114;5.654;2023-02-19T00:50:35;10.63;;;5.40;;
40433;SDS011;26146;51.114;5.654;2023-02-19T00:54:36;11.27;;;5.00;;
40433;SDS011;26146;51.114;5.654;2023-02-19T00:58:37;10.07;;;4.87;;
40433;SDS011;26146;51.114;5.654;2023-02-19T01:02:41;10.83;;;5.20;;
40433;SDS011;26146;51.114;5.654;2023-02-19T01:06:42;10.87;;;5.27;;
40433;SDS011;26146;51.114;5.654;2023-02-19T01:10:43;13.00;;;5.30;;
40433;SDS011;26146;51.114;5.654;2023-02-19T01:14:44;10.27;;;5.10;;
40433;SDS011;26146;51.114;5.654;2023-02-19T01:18:45;12.80;;;5.70;;
40433;SDS011;26146;51.114;5.654;2023-02-19T01:22:47;13.17;;;5.73;;
40433;SDS011;26146;51.114;5.654;2023-02-19T01:26:48;14.83;;;6.13;;
40433;SDS011;26146;51.114;5.654;2023-02-19T01:30:49;14.63;;;5.80;;
40433;SDS011;26146;51.114;5.654;2023-02-19T01:34:49;15.60;;;6.30;;
40433;SDS011;26146;51.114;5.654;2023-02-19T01:38:53;13.10;;;6.40;;
40433;SDS011;26146;51.114;5.654;2023-02-19T01:42:54;14.77;;;6.07;;
40433;SDS011;26146;51.114;5.654;2023-02-19T01:46:58;13.77;;;6.33;;
40433;SDS011;26146;51.114;5.654;2023-02-19T01:51:01;16.20;;;6.67;;
40433;SDS011;26146;51.114;5.654;2023-02-19T01:55:09;12.97;;;6.30;;
40433;SDS011;26146;51.114;5.654;2023-02-19T01:59:12;17.00;;;6.83;;
40433;SDS011;26146;51.114;5.654;2023-02-19T02:03:13;16.70;;;7.60;;
40433;SDS011;26146;51.114;5.654;2023-02-19T02:07:15;16.13;;;7.67;;
40433;SDS011;26146;51.114;5.654;2023-02-19T02:11:35;15.13;;;7.53;;
40433;SDS011;26146;51.114;5.654;2023-02-19T02:15:50;17.87;;;8.23;;
40433;SDS011;26146;51.114;5.654;2023-02-19T02:20:37;18.88;;;7.95;;
40433;SDS011;26146;51.114;5.654;2023-02-19T02:37:33;17.47;;;7.97;;
40433;SDS011;26146;51.114;5.654;2023-02-19T02:41:43;18.73;;;8.13;;
40433;SDS011;26146;51.114;5.654;2023-02-19T02:46:12;18.43;;;7.80;;
40433;SDS011;26146;51.114;5.654;2023-02-19T02:50:27;21.73;;;8.67;;
40433;SDS011;26146;51.114;5.654;2023-02-19T02:54:33;20.37;;;9.47;;
40433;SDS011;26146;51.114;5.654;2023-02-19T02:58:53;20.27;;;9.43;;
40433;SDS011;26146;51.114;5.654;2023-02-19T03:02:57;22.02;;;9.45;;
40433;SDS011;26146;51.114;5.654;2023-02-19T03:07:02;24.47;;;10.97;;
40433;SDS011;26146;51.114;5.654;2023-02-19T03:11:10;23.33;;;10.23;;
40433;SDS011;26146;51.114;5.654;2023-02-19T03:15:35;20.87;;;10.67;;
40433;SDS011;26146;51.114;5.654;2023-02-19T03:20:00;20.43;;;9.73;;
40433;SDS011;26146;51.114;5.654;2023-02-19T03:24:05;22.50;;;10.63;;
40433;SDS011;26146;51.114;5.654;2023-02-19T03:28:27;20.73;;;10.60;;
40433;SDS011;26146;51.114;5.654;2023-02-19T03:32:54;22.00;;;10.37;;
40433;SDS011;26146;51.114;5.654;2023-02-19T03:37:03;24.47;;;10.90;;
40433;SDS011;26146;51.114;5.654;2023-02-19T03:58:31;22.60;;;8.80;;
40433;SDS011;26146;51.114;5.654;2023-02-19T04:07:17;20.47;;;8.33;;
40433;SDS011;26146;51.114;5.654;2023-02-19T04:11:18;21.07;;;8.10;;
40433;SDS011;26146;51.114;5.654;2023-02-19T04:15:22;16.10;;;7.77;;
40433;SDS011;26146;51.114;5.654;2023-02-19T04:19:29;17.67;;;6.80;;
40433;SDS011;26146;51.114;5.654;2023-02-19T04:23:39;18.60;;;6.73;;
40433;SDS011;26146;51.114;5.654;2023-02-19T04:27:43;13.33;;;6.07;;
40433;SDS011;26146;51.114;5.654;2023-02-19T04:31:45;14.87;;;5.80;;
40433;SDS011;26146;51.114;5.654;2023-02-19T04:35:46;18.80;;;6.07;;
40433;SDS011;26146;51.114;5.654;2023-02-19T04:39:46;14.23;;;5.33;;
40433;SDS011;26146;51.114;5.654;2023-02-19T04:43:47;16.87;;;5.07;;
40433;SDS011;26146;51.114;5.654;2023-02-19T04:47:56;14.47;;;5.17;;
40433;SDS011;26146;51.114;5.654;2023-02-19T04:51:58;18.00;;;5.07;;
40433;SDS011;26146;51.114;5.654;2023-02-19T04:56:07;16.73;;;4.97;;
40433;SDS011;26146;51.114;5.654;2023-02-19T05:00:10;17.93;;;4.80;;
40433;SDS011;26146;51.114;5.654;2023-02-19T05:04:11;16.10;;;4.27;;
40433;SDS011;26146;51.114;5.654;2023-02-19T05:08:12;16.80;;;3.90;;
40433;SDS011;26146;51.114;5.654;2023-02-19T05:12:13;13.33;;;4.17;;
40433;SDS011;26146;51.114;5.654;2023-02-19T05:16:15;17.30;;;4.13;;
40433;SDS011;26146;51.114;5.654;2023-02-19T05:20:16;14.60;;;3.93;;
40433;SDS011;26146;51.114;5.654;2023-02-19T05:24:22;12.70;;;3.97;;
40433;SDS011;26146;51.114;5.654;2023-02-19T05:28:23;12.77;;;3.73;;
40433;SDS011;26146;51.114;5.654;2023-02-19T05:32:30;16.73;;;3.70;;
40433;SDS011;26146;51.114;5.654;2023-02-19T05:36:33;15.10;;;3.80;;
40433;SDS011;26146;51.114;5.654;2023-02-19T05:40:36;13.63;;;3.80;;
40433;SDS011;26146;51.114;5.654;2023-02-19T05:44:38;11.77;;;3.57;;
40433;SDS011;26146;51.114;5.654;2023-02-19T05:48:39;14.10;;;3.70;;
40433;SDS011;26146;51.114;5.654;2023-02-19T05:52:40;11.83;;;3.80;;
40433;SDS011;26146;51.114;5.654;2023-02-19T05:56:42;18.13;;;4.10;;
40433;SDS011;26146;51.114;5.654;2023-02-19T06:00:43;13.97;;;3.80;;
40433;SDS011;26146;51.114;5.654;2023-02-19T06:04:44;16.10;;;3.70;;
40433;SDS011;26146;51.114;5.654;2023-02-19T06:08:46;14.70;;;4.30;;
40433;SDS011;26146;51.114;5.654;2023-02-19T06:12:51;16.90;;;4.30;;
40433;SDS011;26146;51.114;5.654;2023-02-19T06:16:52;14.37;;;3.90;;
40433;SDS011;26146;51.114;5.654;2023-02-19T06:20:53;16.60;;;4.10;;
40433;SDS011;26146;51.114;5.654;2023-02-19T06:24:59;15.30;;;3.70;;
40433;SDS011;26146;51.114;5.654;2023-02-19T06:29:00;13.27;;;3.57;;
40433;SDS011;26146;51.114;5.654;2023-02-19T06:33:01;14.53;;;3.17;;
40433;SDS011;26146;51.114;5.654;2023-02-19T06:37:02;18.47;;;4.20;;
40433;SDS011;26146;51.114;5.654;2023-02-19T06:41:03;15.37;;;3.67;;
40433;SDS011;26146;51.114;5.654;2023-02-19T06:45:05;15.87;;;3.43;;
40433;SDS011;26146;51.114;5.654;2023-02-19T06:49:06;13.63;;;3.57;;
40433;SDS011;26146;51.114;5.654;2023-02-19T06:53:07;14.43;;;3.50;;
40433;SDS011;26146;51.114;5.654;2023-02-19T06:57:10;14.40;;;3.73;;
40433;SDS011;26146;51.114;5.654;2023-02-19T07:01:11;16.50;;;3.80;;
40433;SDS011;26146;51.114;5.654;2023-02-19T07:05:12;12.97;;;2.93;;
40433;SDS011;26146;51.114;5.654;2023-02-19T07:09:13;15.53;;;3.57;;
40433;SDS011;26146;51.114;5.654;2023-02-19T07:13:14;13.87;;;3.13;;
40433;SDS011;26146;51.114;5.654;2023-02-19T07:17:15;14.60;;;2.87;;
40433;SDS011;26146;51.114;5.654;2023-02-19T07:21:16;16.90;;;3.07;;
40433;SDS011;26146;51.114;5.654;2023-02-19T07:25:17;11.87;;;2.90;;
40433;SDS011;26146;51.114;5.654;2023-02-19T07:29:18;11.40;;;2.70;;
40433;SDS011;26146;51.114;5.654;2023-02-19T07:33:19;14.50;;;2.93;;
40433;SDS011;26146;51.114;5.654;2023-02-19T07:37:20;10.13;;;2.60;;
40433;SDS011;26146;51.114;5.654;2023-02-19T07:41:21;14.57;;;2.73;;
40433;SDS011;26146;51.114;5.654;2023-02-19T07:45:23;12.90;;;2.67;;
40433;SDS011;26146;51.114;5.654;2023-02-19T07:49:27;10.67;;;2.60;;
40433;SDS011;26146;51.114;5.654;2023-02-19T07:53:28;12.93;;;2.47;;
40433;SDS011;26146;51.114;5.654;2023-02-19T07:57:29;11.57;;;2.87;;
40433;SDS011;26146;51.114;5.654;2023-02-19T08:01:32;14.00;;;2.90;;
40433;SDS011;26146;51.114;5.654;2023-02-19T08:05:51;11.37;;;3.00;;
40433;SDS011;26146;51.114;5.654;2023-02-19T08:09:54;13.07;;;2.93;;
40433;SDS011;26146;51.114;5.654;2023-02-19T08:14:15;13.40;;;3.20;;
40433;SDS011;26146;51.114;5.654;2023-02-19T08:18:16;13.30;;;3.00;;
40433;SDS011;26146;51.114;5.654;2023-02-19T08:22:21;14.00;;;3.30;;
40433;SDS011;26146;51.114;5.654;2023-02-19T08:26:22;13.87;;;3.40;;
40433;SDS011;26146;51.114;5.654;2023-02-19T08:30:22;13.17;;;3.47;;
40433;SDS011;26146;51.114;5.654;2023-02-19T08:34:23;11.57;;;3.47;;
40433;SDS011;26146;51.114;5.654;2023-02-19T08:38:27;11.17;;;3.37;;
40433;SDS011;26146;51.114;5.654;2023-02-19T08:42:28;12.70;;;3.40;;
40433;SDS011;26146;51.114;5.654;2023-02-19T08:46:34;11.50;;;3.47;;
40433;SDS011;26146;51.114;5.654;2023-02-19T08:50:35;10.93;;;3.73;;
40433;SDS011;26146;51.114;5.654;2023-02-19T08:54:37;12.13;;;3.63;;
40433;SDS011;26146;51.114;5.654;2023-02-19T08:58:38;10.20;;;3.63;;
40433;SDS011;26146;51.114;5.654;2023-02-19T09:02:39;14.40;;;3.40;;
40433;SDS011;26146;51.114;5.654;2023-02-19T09:06:40;14.47;;;4.07;;
40433;SDS011;26146;51.114;5.654;2023-02-19T09:10:41;13.93;;;3.70;;
40433;SDS011;26146;51.114;5.654;2023-02-19T09:14:42;13.57;;;4.00;;
40433;SDS011;26146;51.114;5.654;2023-02-19T09:18:43;14.93;;;3.90;;
40433;SDS011;26146;51.114;5.654;2023-02-19T09:22:45;12.07;;;3.80;;
40433;SDS011;26146;51.114;5.654;2023-02-19T09:26:53;18.43;;;4.57;;
40433;SDS011;26146;51.114;5.654;2023-02-19T09:30:54;13.80;;;4.67;;
40433;SDS011;26146;51.114;5.654;2023-02-19T09:34:55;12.30;;;4.20;;
40433;SDS011;26146;51.114;5.654;2023-02-19T09:38:56;12.40;;;3.70;;
40433;SDS011;26146;51.114;5.654;2023-02-19T09:42:59;10.37;;;3.50;;
40433;SDS011;26146;51.114;5.654;2023-02-19T09:47:00;13.23;;;3.70;;
40433;SDS011;26146;51.114;5.654;2023-02-19T09:51:05;12.93;;;3.37;;
40433;SDS011;26146;51.114;5.654;2023-02-19T09:59:19;11.60;;;3.20;;
40433;SDS011;26146;51.114;5.654;2023-02-19T10:03:30;12.83;;;3.30;;
40433;SDS011;26146;51.114;5.654;2023-02-19T10:07:45;11.43;;;3.53;;
40433;SDS011;26146;51.114;5.654;2023-02-19T10:11:48;11.47;;;3.33;;
40433;SDS011;26146;51.114;5.654;2023-02-19T10:15:53;10.33;;;3.20;;
40433;SDS011;26146;51.114;5.654;2023-02-19T10:19:59;9.50;;;2.80;;
40433;SDS011;26146;51.114;5.654;2023-02-19T10:24:04;11.20;;;3.20;;
40433;SDS011;26146;51.114;5.654;2023-02-19T10:28:08;10.00;;;3.37;;
40433;SDS011;26146;51.114;5.654;2023-02-19T10:32:15;12.03;;;3.23;;
40433;SDS011;26146;51.114;5.654;2023-02-19T10:36:24;12.50;;;3.37;;
40433;SDS011;26146;51.114;5.654;2023-02-19T10:40:29;11.97;;;3.20;;
40433;SDS011;26146;51.114;5.654;2023-02-19T10:44:33;9.43;;;3.40;;
40433;SDS011;26146;51.114;5.654;2023-02-19T10:48:43;11.77;;;4.97;;
40433;SDS011;26146;51.114;5.654;2023-02-19T10:52:54;10.18;;;3.17;;
40433;SDS011;26146;51.114;5.654;2023-02-19T11:01:24;10.50;;;3.73;;
40433;SDS011;26146;51.114;5.654;2023-02-19T11:05:26;11.27;;;3.50;;
40433;SDS011;26146;51.114;5.654;2023-02-19T11:09:28;11.73;;;3.63;;
40433;SDS011;26146;51.114;5.654;2023-02-19T11:13:36;13.00;;;3.47;;
40433;SDS011;26146;51.114;5.654;2023-02-19T11:17:39;11.60;;;3.23;;
40433;SDS011;26146;51.114;5.654;2023-02-19T11:21:40;11.03;;;3.17;;
40433;SDS011;26146;51.114;5.654;2023-02-19T11:25:45;11.57;;;3.42;;
40433;SDS011;26146;51.114;5.654;2023-02-19T11:29:48;9.27;;;3.10;;
40433;SDS011;26146;51.114;5.654;2023-02-19T11:33:52;10.43;;;3.80;;
40433;SDS011;26146;51.114;5.654;2023-02-19T11:37:57;10.50;;;3.50;;
40433;SDS011;26146;51.114;5.654;2023-02-19T11:46:08;11.87;;;3.60;;
40433;SDS011;26146;51.114;5.654;2023-02-19T11:54:49;11.15;;;3.72;;
40433;SDS011;26146;51.114;5.654;2023-02-19T12:11:53;10.93;;;3.38;;
40433;SDS011;26146;51.114;5.654;2023-02-19T12:20:29;12.18;;;4.32;;
40433;SDS011;26146;51.114;5.654;2023-02-19T12:46:59;18.27;;;7.13;;
40433;SDS011;26146;51.114;5.654;2023-02-19T12:51:04;17.40;;;7.25;;
40433;SDS011;26146;51.114;5.654;2023-02-19T12:59:41;16.45;;;6.82;;
40433;SDS011;26146;51.114;5.654;2023-02-19T13:03:50;19.27;;;6.75;;
40433;SDS011;26146;51.114;5.654;2023-02-19T13:16:26;16.75;;;6.00;;
40433;SDS011;26146;51.114;5.654;2023-02-19T13:20:40;14.52;;;5.47;;
40433;SDS011;26146;51.114;5.654;2023-02-19T13:24:42;17.48;;;5.80;;
40433;SDS011;26146;51.114;5.654;2023-02-19T13:28:55;16.02;;;5.78;;
40433;SDS011;26146;51.114;5.654;2023-02-19T13:37:21;14.18;;;5.20;;
40433;SDS011;26146;51.114;5.654;2023-02-19T13:41:27;14.25;;;5.32;;
40433;SDS011;26146;51.114;5.654;2023-02-19T13:45:36;12.38;;;5.20;;
40433;SDS011;26146;51.114;5.654;2023-02-19T13:49:39;13.52;;;5.35;;
40433;SDS011;26146;51.114;5.654;2023-02-19T13:57:45;15.52;;;5.97;;
40433;SDS011;26146;51.114;5.654;2023-02-19T14:05:57;16.17;;;5.55;;
40433;SDS011;26146;51.114;5.654;2023-02-19T14:10:08;16.20;;;5.75;;
40433;SDS011;26146;51.114;5.654;2023-02-19T14:26:46;12.37;;;5.77;;
40433;SDS011;26146;51.114;5.654;2023-02-19T14:35:31;13.87;;;6.20;;
40433;SDS011;26146;51.114;5.654;2023-02-19T14:39:36;14.73;;;6.37;;
40433;SDS011;26146;51.114;5.654;2023-02-19T14:43:39;11.97;;;5.90;;
40433;SDS011;26146;51.114;5.654;2023-02-19T14:47:41;12.27;;;5.60;;
40433;SDS011;26146;51.114;5.654;2023-02-19T14:51:45;11.57;;;6.10;;
40433;SDS011;26146;51.114;5.654;2023-02-19T14:55:51;15.00;;;6.57;;
40433;SDS011;26146;51.114;5.654;2023-02-19T14:59:58;14.40;;;5.97;;
40433;SDS011;26146;51.114;5.654;2023-02-19T15:04:01;13.67;;;6.73;;
40433;SDS011;26146;51.114;5.654;2023-02-19T15:08:06;15.07;;;7.23;;
40433;SDS011;26146;51.114;5.654;2023-02-19T15:12:31;15.13;;;7.10;;
40433;SDS011;26146;51.114;5.654;2023-02-19T15:16:41;12.93;;;5.93;;
40433;SDS011;26146;51.114;5.654;2023-02-19T15:20:42;10.77;;;4.20;;
40433;SDS011;26146;51.114;5.654;2023-02-19T15:24:45;8.17;;;3.13;;
40433;SDS011;26146;51.114;5.654;2023-02-19T15:28:46;7.90;;;3.10;;
40433;SDS011;26146;51.114;5.654;2023-02-19T15:32:58;8.17;;;2.30;;
40433;SDS011;26146;51.114;5.654;2023-02-19T15:37:03;7.50;;;2.07;;
40433;SDS011;26146;51.114;5.654;2023-02-19T15:41:06;5.53;;;1.70;;
40433;SDS011;26146;51.114;5.654;2023-02-19T15:49:26;6.40;;;1.70;;
40433;SDS011;26146;51.114;5.654;2023-02-19T15:53:42;6.47;;;1.13;;
40433;SDS011;26146;51.114;5.654;2023-02-19T15:58:01;6.10;;;1.13;;
40433;SDS011;26146;51.114;5.654;2023-02-19T16:02:23;6.23;;;1.00;;
40433;SDS011;26146;51.114;5.654;2023-02-19T16:06:25;4.30;;;0.80;;
40433;SDS011;26146;51.114;5.654;2023-02-19T16:10:27;5.53;;;0.90;;
40433;SDS011;26146;51.114;5.654;2023-02-19T16:14:32;3.73;;;0.77;;
40433;SDS011;26146;51.114;5.654;2023-02-19T16:18:35;3.90;;;0.80;;
40433;SDS011;26146;51.114;5.654;2023-02-19T16:22:39;6.83;;;1.00;;
40433;SDS011;26146;51.114;5.654;2023-02-19T16:26:42;5.67;;;1.10;;
40433;SDS011;26146;51.114;5.654;2023-02-19T16:30:44;5.37;;;1.10;;
40433;SDS011;26146;51.114;5.654;2023-02-19T16:34:56;5.47;;;1.63;;
40433;SDS011;26146;51.114;5.654;2023-02-19T16:47:17;5.97;;;1.70;;
40433;SDS011;26146;51.114;5.654;2023-02-19T16:51:24;6.50;;;1.60;;
40433;SDS011;26146;51.114;5.654;2023-02-19T16:55:26;6.93;;;1.80;;
40433;SDS011;26146;51.114;5.654;2023-02-19T16:59:29;9.07;;;2.17;;
40433;SDS011;26146;51.114;5.654;2023-02-19T17:03:30;7.80;;;2.40;;
40433;SDS011;26146;51.114;5.654;2023-02-19T17:07:31;8.53;;;2.77;;
40433;SDS011;26146;51.114;5.654;2023-02-19T17:11:32;8.53;;;2.00;;
40433;SDS011;26146;51.114;5.654;2023-02-19T17:15:33;7.17;;;1.90;;
40433;SDS011;26146;51.114;5.654;2023-02-19T17:19:34;7.20;;;1.77;;
40433;SDS011;26146;51.114;5.654;2023-02-19T17:23:35;5.60;;;1.53;;
40433;SDS011;26146;51.114;5.654;2023-02-19T17:27:36;5.07;;;1.20;;
40433;SDS011;26146;51.114;5.654;2023-02-19T17:31:37;5.90;;;1.10;;
40433;SDS011;26146;51.114;5.654;2023-02-19T17:35:38;6.20;;;1.00;;
40433;SDS011;26146;51.114;5.654;2023-02-19T17:39:39;4.03;;;1.10;;
40433;SDS011;26146;51.114;5.654;2023-02-19T17:43:40;4.37;;;0.90;;
40433;SDS011;26146;51.114;5.654;2023-02-19T17:47:41;4.53;;;0.80;;
40433;SDS011;26146;51.114;5.654;2023-02-19T17:51:42;4.97;;;1.10;;
40433;SDS011;26146;51.114;5.654;2023-02-19T17:55:43;4.80;;;1.07;;
40433;SDS011;26146;51.114;5.654;2023-02-19T17:59:46;5.07;;;0.90;;
40433;SDS011;26146;51.114;5.654;2023-02-19T18:03:47;5.57;;;1.20;;
40433;SDS011;26146;51.114;5.654;2023-02-19T18:07:49;5.70;;;1.20;;
40433;SDS011;26146;51.114;5.654;2023-02-19T18:11:52;5.37;;;1.27;;
40433;SDS011;26146;51.114;5.654;2023-02-19T18:15:56;5.97;;;1.00;;
40433;SDS011;26146;51.114;5.654;2023-02-19T18:19:59;6.20;;;1.13;;
40433;SDS011;26146;51.114;5.654;2023-02-19T18:24:00;6.57;;;1.60;;
40433;SDS011;26146;51.114;5.654;2023-02-19T18:28:24;5.83;;;1.30;;
40433;SDS011;26146;51.114;5.654;2023-02-19T18:32:25;4.27;;;1.20;;
40433;SDS011;26146;51.114;5.654;2023-02-19T18:36:26;5.63;;;1.20;;
40433;SDS011;26146;51.114;5.654;2023-02-19T18:40:28;3.77;;;0.97;;
40433;SDS011;26146;51.114;5.654;2023-02-19T18:44:29;6.00;;;1.00;;
40433;SDS011;26146;51.114;5.654;2023-02-19T18:48:30;3.80;;;1.07;;
40433;SDS011;26146;51.114;5.654;2023-02-19T18:52:31;6.17;;;1.50;;
40433;SDS011;26146;51.114;5.654;2023-02-19T18:56:38;5.60;;;1.30;;
40433;SDS011;26146;51.114;5.654;2023-02-19T19:00:41;6.73;;;1.23;;
40433;SDS011;26146;51.114;5.654;2023-02-19T19:04:42;5.13;;;1.30;;
40433;SDS011;26146;51.114;5.654;2023-02-19T19:12:48;4.63;;;1.13;;
40433;SDS011;26146;51.114;5.654;2023-02-19T19:16:50;4.40;;;1.27;;
40433;SDS011;26146;51.114;5.654;2023-02-19T19:20:51;4.37;;;1.20;;
40433;SDS011;26146;51.114;5.654;2023-02-19T19:24:55;6.63;;;1.60;;
40433;SDS011;26146;51.114;5.654;2023-02-19T19:28:56;6.00;;;1.50;;
40433;SDS011;26146;51.114;5.654;2023-02-19T19:32:57;7.20;;;1.50;;
40433;SDS011;26146;51.114;5.654;2023-02-19T19:36:59;7.83;;;1.70;;
40433;SDS011;26146;51.114;5.654;2023-02-19T19:41:01;6.20;;;1.67;;
40433;SDS011;26146;51.114;5.654;2023-02-19T19:45:03;6.53;;;1.70;;
40433;SDS011;26146;51.114;5.654;2023-02-19T19:49:05;5.93;;;1.70;;
40433;SDS011;26146;51.114;5.654;2023-02-19T19:53:06;6.73;;;1.60;;
40433;SDS011;26146;51.114;5.654;2023-02-19T19:57:07;6.73;;;1.77;;
40433;SDS011;26146;51.114;5.654;2023-02-19T20:01:08;7.37;;;2.10;;
40433;SDS011;26146;51.114;5.654;2023-02-19T20:05:09;6.63;;;2.20;;
40433;SDS011;26146;51.114;5.654;2023-02-19T20:09:12;7.53;;;2.47;;
40433;SDS011;26146;51.114;5.654;2023-02-19T20:13:14;7.97;;;2.57;;
40433;SDS011;26146;51.114;5.654;2023-02-19T20:17:16;8.13;;;2.80;;
40433;SDS011;26146;51.114;5.654;2023-02-19T20:21:18;7.30;;;2.80;;
40433;SDS011;26146;51.114;5.654;2023-02-19T20:25:22;8.20;;;3.10;;
40433;SDS011;26146;51.114;5.654;2023-02-19T20:29:24;8.67;;;3.57;;
40433;SDS011;26146;51.114;5.654;2023-02-19T20:33:28;9.87;;;3.57;;
40433;SDS011;26146;51.114;5.654;2023-02-19T20:37:29;10.43;;;3.57;;
40433;SDS011;26146;51.114;5.654;2023-02-19T20:41:30;9.87;;;4.00;;
40433;SDS011;26146;51.114;5.654;2023-02-19T20:45:31;11.73;;;5.07;;
40433;SDS011;26146;51.114;5.654;2023-02-19T20:49:32;10.00;;;4.33;;
40433;SDS011;26146;51.114;5.654;2023-02-19T20:53:33;14.90;;;6.63;;
40433;SDS011;26146;51.114;5.654;2023-02-19T20:57:34;13.37;;;6.10;;
40433;SDS011;26146;51.114;5.654;2023-02-19T21:01:36;13.07;;;5.17;;
40433;SDS011;26146;51.114;5.654;2023-02-19T21:05:37;10.93;;;4.60;;
40433;SDS011;26146;51.114;5.654;2023-02-19T21:09:42;12.13;;;4.47;;
40433;SDS011;26146;51.114;5.654;2023-02-19T21:13:43;10.00;;;4.40;;
40433;SDS011;26146;51.114;5.654;2023-02-19T21:17:44;12.07;;;4.40;;
40433;SDS011;26146;51.114;5.654;2023-02-19T21:21:46;10.60;;;4.87;;
40433;SDS011;26146;51.114;5.654;2023-02-19T21:25:47;13.57;;;5.53;;
40433;SDS011;26146;51.114;5.654;2023-02-19T21:29:50;14.10;;;6.03;;
40433;SDS011;26146;51.114;5.654;2023-02-19T21:33:51;13.00;;;5.67;;
40433;SDS011;26146;51.114;5.654;2023-02-19T21:37:52;13.07;;;5.50;;
40433;SDS011;26146;51.114;5.654;2023-02-19T21:41:53;13.23;;;5.17;;
40433;SDS011;26146;51.114;5.654;2023-02-19T21:45:54;15.23;;;5.73;;
40433;SDS011;26146;51.114;5.654;2023-02-19T21:49:56;12.43;;;5.10;;
40433;SDS011;26146;51.114;5.654;2023-02-19T21:53:59;13.00;;;5.23;;
40433;SDS011;26146;51.114;5.654;2023-02-19T21:58:00;13.67;;;5.27;;
40433;SDS011;26146;51.114;5.654;2023-02-19T22:02:01;15.47;;;5.90;;
40433;SDS011;26146;51.114;5.654;2023-02-19T22:06:03;13.97;;;5.57;;
40433;SDS011;26146;51.114;5.654;2023-02-19T22:10:04;13.97;;;5.37;;
40433;SDS011;26146;51.114;5.654;2023-02-19T22:14:09;14.43;;;6.03;;
40433;SDS011;26146;51.114;5.654;2023-02-19T22:18:10;14.57;;;5.60;;
40433;SDS011;26146;51.114;5.654;2023-02-19T22:22:11;13.83;;;5.97;;
40433;SDS011;26146;51.114;5.654;2023-02-19T22:26:20;14.60;;;5.73;;
40433;SDS011;26146;51.114;5.654;2023-02-19T22:30:23;14.27;;;5.87;;
40433;SDS011;26146;51.114;5.654;2023-02-19T22:34:24;15.23;;;6.43;;
40433;SDS011;26146;51.114;5.654;2023-02-19T22:38:25;16.77;;;6.67;;
40433;SDS011;26146;51.114;5.654;2023-02-19T22:42:26;14.90;;;6.37;;
40433;SDS011;26146;51.114;5.654;2023-02-19T22:46:29;15.70;;;6.23;;
40433;SDS011;26146;51.114;5.654;2023-02-19T22:50:31;15.17;;;6.67;;
40433;SDS011;26146;51.114;5.654;2023-02-19T22:54:34;15.27;;;6.27;;
40433;SDS011;26146;51.114;5.654;2023-02-19T22:58:35;16.40;;;7.13;;
40433;SDS011;26146;51.114;5.654;2023-02-19T23:02:36;15.50;;;6.33;;
40433;SDS011;26146;51.114;5.654;2023-02-19T23:06:39;18.63;;;6.40;;
40433;SDS011;26146;51.114;5.654;2023-02-19T23:10:42;15.97;;;6.60;;
40433;SDS011;26146;51.114;5.654;2023-02-19T23:14:44;14.43;;;6.07;;
40433;SDS011;26146;51.114;5.654;2023-02-19T23:18:46;13.70;;;6.00;;
40433;SDS011;26146;51.114;5.654;2023-02-19T23:22:49;15.57;;;6.40;;
40433;SDS011;26146;51.114;5.654;2023-02-19T23:26:50;17.70;;;6.40;;
40433;SDS011;26146;51.114;5.654;2023-02-19T23:30:52;15.37;;;6.43;;
40433;SDS011;26146;51.114;5.654;2023-02-19T23:34:53;17.27;;;6.10;;
40433;SDS011;26146;51.114;5.654;2023-02-19T23:38:57;17.10;;;6.07;;
40433;SDS011;26146;51.114;5.654;2023-02-19T23:42:57;13.17;;;6.07;;
40433;SDS011;26146;51.114;5.654;2023-02-19T23:46:58;13.20;;;5.90;;
40433;SDS011;26146;51.114;5.654;2023-02-19T23:50:59;14.13;;;6.20;;
40433;SDS011;26146;51.114;5.654;2023-02-19T23:55:00;16.67;;;6.43;;
40433;SDS011;26146;51.114;5.654;2023-02-19T23:59:01;15.87;;;6.70;;
